createdAt,value
2018-06-18T00:01:03.004Z,4.57
2018-06-18T00:03:33.376Z,4.63
2018-06-18T00:06:04.400Z,5.03
2018-06-18T00:08:34.828Z,6.13
2018-06-18T00:11:06.221Z,5.73
2018-06-18T00:13:37.360Z,4.83
2018-06-18T00:16:07.752Z,3.60
2018-06-18T00:18:38.132Z,5.17
2018-06-18T00:21:08.505Z,4.87
2018-06-18T00:23:38.841Z,4.30
2018-06-18T00:26:10.238Z,5.50
2018-06-18T00:28:40.611Z,7.70
2018-06-18T00:31:11.014Z,6.10
2018-06-18T00:33:41.394Z,4.70
2018-06-18T00:36:12.541Z,4.63
2018-06-18T00:38:43.715Z,5.00
2018-06-18T00:41:14.100Z,4.07
2018-06-18T00:43:45.245Z,4.37
2018-06-18T00:46:16.402Z,7.37
2018-06-18T00:48:46.785Z,4.63
2018-06-18T00:51:17.156Z,5.50
2018-06-18T00:53:48.273Z,7.47
2018-06-18T00:56:18.651Z,6.63
2018-06-18T00:58:49.014Z,6.90
2018-06-18T01:01:20.199Z,5.20
2018-06-18T01:03:51.333Z,7.87
2018-06-18T01:06:22.475Z,3.63
2018-06-18T01:08:53.644Z,3.00
2018-06-18T01:11:24.001Z,6.77
2018-06-18T01:13:54.970Z,4.97
2018-06-18T01:16:25.347Z,5.50
2018-06-18T01:18:55.721Z,6.90
2018-06-18T01:21:26.103Z,4.47
2018-06-18T01:23:58.552Z,3.17
2018-06-18T01:26:28.929Z,5.93
2018-06-18T01:28:59.313Z,4.33
2018-06-18T01:31:29.908Z,5.83
2018-06-18T01:34:00.284Z,4.73
2018-06-18T01:36:30.662Z,5.47
2018-06-18T01:39:01.079Z,6.63
2018-06-18T01:41:31.443Z,7.67
2018-06-18T01:44:03.273Z,5.53
2018-06-18T01:46:33.670Z,3.30
2018-06-18T01:49:25.458Z,3.93
2018-06-18T01:51:55.868Z,6.67
2018-06-18T01:54:27.017Z,3.20
2018-06-18T01:56:58.161Z,5.47
2018-06-18T01:59:29.317Z,5.33
2018-06-18T02:02:00.460Z,6.13
2018-06-18T02:04:31.547Z,8.00
2018-06-18T02:07:21.309Z,6.90
2018-06-18T02:09:51.680Z,6.87
2018-06-18T02:12:22.057Z,4.23
2018-06-18T02:14:52.442Z,4.87
2018-06-18T02:17:22.811Z,7.13
2018-06-18T02:19:53.189Z,6.17
2018-06-18T02:22:24.331Z,4.87
2018-06-18T02:24:54.888Z,5.93
2018-06-18T02:27:25.268Z,7.97
2018-06-18T02:30:13.704Z,4.83
2018-06-18T02:33:02.222Z,6.97
2018-06-18T02:35:51.511Z,8.77
2018-06-18T02:41:11.555Z,6.47
2018-06-18T02:43:41.932Z,4.87
2018-06-18T02:46:12.296Z,6.57
2018-06-18T02:48:42.689Z,4.20
2018-06-18T02:51:13.054Z,5.53
2018-06-18T02:53:43.434Z,5.27
2018-06-18T02:56:13.839Z,4.97
2018-06-18T02:58:44.983Z,5.97
2018-06-18T03:01:16.120Z,5.47
2018-06-18T03:03:47.294Z,5.27
2018-06-18T03:06:17.856Z,6.83
2018-06-18T03:08:48.224Z,4.80
2018-06-18T03:11:19.394Z,5.53
2018-06-18T03:13:49.765Z,11.27
2018-06-18T03:16:21.173Z,9.93
2018-06-18T03:18:51.765Z,4.00
2018-06-18T03:21:40.129Z,5.67
2018-06-18T03:24:11.233Z,9.57
2018-06-18T03:26:59.601Z,7.10
2018-06-18T03:29:30.646Z,5.17
2018-06-18T03:32:01.016Z,7.80
2018-06-18T03:34:31.397Z,6.47
2018-06-18T03:37:01.798Z,3.67
2018-06-18T03:39:32.161Z,5.90
2018-06-18T03:42:02.546Z,5.07
2018-06-18T03:44:34.978Z,6.03
2018-06-18T03:47:06.122Z,6.00
2018-06-18T03:49:36.501Z,6.17
2018-06-18T03:52:28.315Z,5.60
2018-06-18T03:55:04.801Z,7.47
2018-06-18T03:57:35.185Z,7.63
2018-06-18T04:00:05.805Z,5.43
2018-06-18T04:02:55.038Z,7.70
2018-06-18T04:05:28.349Z,6.20
2018-06-18T04:07:59.640Z,6.67
2018-06-18T04:10:39.010Z,7.00
2018-06-18T04:13:09.396Z,8.73
2018-06-18T04:15:39.777Z,6.50
2018-06-18T04:18:10.182Z,5.53
2018-06-18T04:20:47.722Z,5.47
2018-06-18T04:23:18.828Z,7.00
2018-06-18T04:25:49.206Z,5.13
2018-06-18T04:28:19.582Z,7.27
2018-06-18T04:30:49.920Z,5.83
2018-06-18T04:33:20.234Z,6.73
2018-06-18T04:35:50.599Z,8.20
2018-06-18T04:38:21.772Z,7.27
2018-06-18T04:40:52.140Z,6.23
2018-06-18T04:43:23.156Z,6.27
2018-06-18T04:45:59.777Z,5.90
2018-06-18T04:51:17.881Z,6.60
2018-06-18T04:54:07.371Z,9.13
2018-06-18T04:56:58.150Z,5.27
2018-06-18T04:59:28.516Z,6.80
2018-06-18T05:01:59.938Z,4.30
2018-06-18T05:04:30.241Z,5.47
2018-06-18T05:07:00.619Z,4.30
2018-06-18T05:09:30.990Z,6.50
2018-06-18T05:12:01.377Z,5.60
2018-06-18T05:14:31.748Z,6.67
2018-06-18T05:17:02.069Z,6.80
2018-06-18T05:19:32.683Z,8.80
2018-06-18T05:22:03.832Z,7.60
2018-06-18T05:24:34.210Z,5.33
2018-06-18T05:27:04.590Z,6.57
2018-06-18T05:29:34.969Z,5.40
2018-06-18T05:32:05.349Z,5.23
2018-06-18T05:34:35.744Z,4.40
2018-06-18T05:37:06.774Z,4.80
2018-06-18T05:39:37.148Z,5.87
2018-06-18T05:42:07.547Z,5.60
2018-06-18T05:44:37.934Z,5.30
2018-06-18T05:47:09.336Z,5.37
2018-06-18T05:49:39.716Z,5.97
2018-06-18T05:52:10.096Z,4.80
2018-06-18T05:54:40.481Z,4.10
2018-06-18T05:57:10.887Z,4.07
2018-06-18T05:59:41.275Z,4.17
2018-06-18T06:02:11.644Z,7.17
2018-06-18T06:04:42.057Z,4.23
2018-06-18T06:07:12.432Z,6.23
2018-06-18T06:09:43.764Z,7.13
2018-06-18T06:12:14.157Z,3.77
2018-06-18T06:14:46.586Z,5.33
2018-06-18T06:17:17.728Z,5.73
2018-06-18T06:19:48.905Z,5.07
2018-06-18T06:22:20.309Z,5.67
2018-06-18T06:24:50.623Z,5.30
2018-06-18T06:27:21.019Z,4.20
2018-06-18T06:29:58.648Z,4.67
2018-06-18T06:32:29.030Z,3.67
2018-06-18T06:34:59.407Z,3.47
2018-06-18T06:37:29.807Z,4.33
2018-06-18T06:40:00.173Z,3.40
2018-06-18T06:42:31.309Z,4.60
2018-06-18T06:45:01.626Z,3.47
2018-06-18T06:47:31.955Z,4.10
2018-06-18T06:50:02.518Z,3.10
2018-06-18T06:52:32.885Z,4.63
2018-06-18T06:55:22.666Z,2.77
2018-06-18T06:58:13.431Z,3.73
2018-06-18T07:00:44.017Z,3.10
2018-06-18T07:03:14.397Z,3.17
2018-06-18T07:05:44.784Z,3.70
2018-06-18T07:08:17.117Z,3.00
2018-06-18T07:10:49.489Z,2.73
2018-06-18T07:13:19.931Z,2.80
2018-06-18T07:15:51.043Z,2.77
2018-06-18T07:18:21.415Z,5.40
2018-06-18T07:20:51.793Z,4.63
2018-06-18T07:23:22.443Z,3.27
2018-06-18T07:25:52.689Z,2.43
2018-06-18T07:28:23.067Z,2.43
2018-06-18T07:30:53.509Z,2.77
2018-06-18T07:33:23.846Z,2.97
2018-06-18T07:36:13.357Z,2.43
2018-06-18T07:38:43.674Z,2.50
2018-06-18T07:41:14.047Z,2.60
2018-06-18T07:43:44.448Z,1.93
2018-06-18T07:46:15.589Z,2.60
2018-06-18T07:48:46.732Z,3.80
2018-06-18T07:51:17.900Z,2.40
2018-06-18T07:53:48.284Z,2.60
2018-06-18T07:56:18.669Z,2.57
2018-06-18T07:58:49.065Z,2.10
2018-06-18T08:01:20.206Z,2.00
2018-06-18T08:03:51.348Z,2.03
2018-06-18T08:06:21.800Z,1.37
2018-06-18T08:08:52.914Z,1.83
2018-06-18T08:11:23.473Z,1.87
2018-06-18T08:13:53.873Z,1.30
2018-06-18T08:16:24.255Z,1.00
2018-06-18T08:18:54.758Z,1.60
2018-06-18T08:21:25.162Z,1.60
2018-06-18T08:23:55.533Z,1.17
2018-06-18T08:26:27.953Z,1.13
2018-06-18T08:28:58.349Z,1.47
2018-06-18T08:31:28.711Z,1.70
2018-06-18T08:33:59.853Z,2.07
2018-06-18T08:36:30.440Z,2.37
2018-06-18T08:39:04.952Z,2.03
2018-06-18T08:41:35.336Z,2.33
2018-06-18T08:44:06.514Z,2.47
2018-06-18T08:46:36.891Z,2.33
2018-06-18T08:49:07.268Z,2.53
2018-06-18T08:54:39.357Z,2.60
2018-06-18T08:57:12.494Z,2.50
2018-06-18T09:00:01.028Z,2.10
2018-06-18T09:02:32.448Z,2.10
2018-06-18T09:05:03.541Z,2.10
2018-06-18T09:07:33.905Z,1.90
2018-06-18T09:10:04.309Z,2.10
2018-06-18T09:12:34.691Z,2.20
2018-06-18T09:15:05.060Z,1.83
2018-06-18T09:17:36.168Z,1.43
2018-06-18T09:20:25.663Z,1.73
2018-06-18T09:22:56.056Z,2.40
2018-06-18T09:25:30.457Z,2.47
2018-06-18T09:28:00.836Z,1.77
2018-06-18T09:30:31.229Z,1.77
2018-06-18T09:33:01.554Z,1.90
2018-06-18T09:35:31.868Z,2.10
2018-06-18T09:38:02.269Z,2.67
2018-06-18T09:40:33.414Z,2.80
2018-06-18T09:43:05.245Z,2.10
2018-06-18T09:45:35.641Z,2.23
2018-06-18T09:48:06.081Z,1.53
2018-06-18T09:50:42.700Z,1.47
2018-06-18T09:53:19.944Z,1.90
2018-06-18T09:55:50.442Z,1.33
2018-06-18T09:58:38.814Z,1.60
2018-06-18T10:01:09.210Z,1.60
2018-06-18T10:03:39.526Z,1.70
2018-06-18T10:06:09.947Z,1.10
2018-06-18T10:08:40.330Z,1.53
2018-06-18T10:11:10.655Z,1.60
2018-06-18T10:13:41.030Z,2.03
2018-06-18T10:16:11.435Z,1.93
2018-06-18T10:18:41.815Z,1.30
2018-06-18T10:21:18.351Z,1.20
2018-06-18T10:23:48.724Z,1.50
2018-06-18T10:26:19.105Z,1.30
2018-06-18T10:28:50.530Z,1.20
2018-06-18T10:31:20.908Z,1.13
2018-06-18T10:33:58.621Z,1.50
2018-06-18T10:37:00.121Z,1.60
2018-06-18T10:39:40.066Z,1.33
2018-06-18T10:42:28.383Z,1.57
2018-06-18T10:44:58.773Z,2.00
2018-06-18T10:47:29.156Z,1.60
2018-06-18T10:49:59.464Z,1.37
2018-06-18T10:52:30.056Z,1.70
2018-06-18T10:55:02.475Z,1.40
2018-06-18T10:57:32.854Z,1.57
2018-06-18T11:00:03.900Z,1.50
2018-06-18T11:02:34.281Z,1.63
2018-06-18T11:05:04.651Z,2.17
2018-06-18T11:07:35.239Z,2.13
2018-06-18T11:10:05.621Z,1.80
2018-06-18T11:12:35.989Z,1.87
2018-06-18T11:15:07.134Z,1.37
2018-06-18T11:17:37.499Z,1.77
2018-06-18T11:20:07.878Z,1.83
2018-06-18T11:22:38.270Z,1.23
2018-06-18T11:25:33.086Z,1.43
2018-06-18T11:28:04.155Z,1.03
2018-06-18T11:30:34.538Z,1.80
2018-06-18T11:33:07.983Z,1.33
2018-06-18T11:35:38.437Z,0.97
2018-06-18T11:38:08.772Z,1.57
2018-06-18T11:40:39.160Z,1.37
2018-06-18T11:43:09.556Z,1.93
2018-06-18T11:45:40.118Z,1.70
2018-06-18T11:50:58.694Z,1.40
2018-06-18T11:53:29.249Z,1.67
2018-06-18T11:55:59.658Z,1.40
2018-06-18T11:58:30.151Z,1.60
2018-06-18T12:01:25.455Z,1.57
2018-06-18T12:04:26.856Z,1.27
2018-06-18T12:07:09.315Z,2.00
2018-06-18T12:10:01.114Z,1.33
2018-06-18T12:12:31.488Z,1.67
2018-06-18T12:15:01.869Z,1.60
2018-06-18T12:17:32.260Z,1.80
2018-06-18T12:20:03.403Z,1.20
2018-06-18T12:22:33.795Z,1.23
2018-06-18T12:25:23.573Z,1.23
2018-06-18T12:27:55.995Z,2.67
2018-06-18T12:30:29.208Z,2.60
2018-06-18T12:32:59.586Z,1.60
2018-06-18T12:35:29.965Z,2.10
2018-06-18T12:38:00.360Z,1.47
2018-06-18T12:40:30.732Z,1.67
2018-06-18T12:43:01.108Z,1.10
2018-06-18T12:45:32.248Z,1.57
2018-06-18T12:48:05.303Z,1.53
2018-06-18T12:50:41.601Z,1.77
2018-06-18T12:53:14.685Z,1.57
2018-06-18T12:56:02.953Z,1.63
2018-06-18T12:58:34.088Z,1.70
2018-06-18T13:01:04.477Z,1.70
2018-06-18T13:03:34.873Z,1.03
2018-06-18T13:06:05.248Z,1.20
2018-06-18T13:08:35.557Z,2.03
2018-06-18T13:11:27.369Z,1.50
2018-06-18T13:13:57.749Z,1.53
2018-06-18T13:16:28.895Z,1.33
2018-06-18T13:18:59.279Z,0.90
2018-06-18T13:21:29.666Z,1.33
2018-06-18T13:24:00.036Z,1.50
2018-06-18T13:26:31.469Z,1.23
2018-06-18T13:29:01.841Z,1.57
2018-06-18T13:31:32.401Z,1.40
2018-06-18T13:34:02.803Z,1.50
2018-06-18T13:36:33.360Z,1.33
2018-06-18T13:39:03.731Z,1.57
2018-06-18T13:41:52.159Z,1.23
2018-06-18T13:44:37.335Z,1.67
2018-06-18T13:50:00.884Z,1.23
2018-06-18T13:52:31.337Z,1.30
2018-06-18T13:55:01.669Z,1.43
2018-06-18T13:57:34.086Z,1.67
2018-06-18T14:00:04.423Z,1.37
2018-06-18T14:02:34.973Z,2.00
2018-06-18T14:05:06.115Z,1.57
2018-06-18T14:07:37.268Z,1.67
2018-06-18T14:10:07.650Z,1.30
2018-06-18T14:12:38.021Z,1.50
2018-06-18T14:15:08.431Z,1.60
2018-06-18T14:17:40.585Z,1.90
2018-06-18T14:20:13.685Z,1.80
2018-06-18T14:22:44.822Z,1.40
2018-06-18T14:25:15.213Z,1.60
2018-06-18T14:27:45.605Z,1.93
2018-06-18T14:30:16.226Z,1.70
2018-06-18T14:32:47.402Z,1.57
2018-06-18T14:35:36.524Z,1.77
2018-06-18T14:38:13.271Z,1.57
2018-06-18T14:40:43.604Z,1.70
2018-06-18T14:43:13.973Z,1.73
2018-06-18T14:45:44.770Z,1.90
2018-06-18T14:48:16.345Z,1.27
2018-06-18T14:50:49.326Z,1.50
2018-06-18T14:53:19.771Z,2.00
2018-06-18T14:55:51.175Z,3.33
2018-06-18T14:58:21.558Z,1.60
2018-06-18T15:00:51.936Z,1.37
2018-06-18T15:03:23.348Z,1.80
2018-06-18T15:05:54.748Z,1.57
2018-06-18T15:08:25.191Z,1.77
2018-06-18T15:10:55.520Z,1.40
2018-06-18T15:13:26.665Z,1.83
2018-06-18T15:15:57.867Z,1.90
2018-06-18T15:18:28.984Z,2.13
2018-06-18T15:20:59.384Z,1.90
2018-06-18T15:23:29.672Z,1.63
2018-06-18T15:26:02.635Z,2.07
2018-06-18T15:28:34.071Z,2.47
2018-06-18T15:31:04.447Z,1.90
2018-06-18T15:33:34.858Z,2.17
2018-06-18T15:36:05.234Z,2.00
2018-06-18T15:38:36.376Z,1.97
2018-06-18T15:41:06.773Z,1.93
2018-06-18T15:43:37.086Z,1.97
2018-06-18T15:46:07.399Z,1.37
2018-06-18T15:48:43.926Z,1.70
2018-06-18T15:51:15.328Z,2.20
2018-06-18T15:53:45.700Z,3.50
2018-06-18T15:56:16.096Z,2.43
2018-06-18T15:58:49.081Z,2.93
2018-06-18T16:01:19.462Z,2.07
2018-06-18T16:03:50.865Z,2.27
2018-06-18T16:06:21.254Z,2.20
2018-06-18T16:09:10.840Z,1.97
2018-06-18T16:11:43.861Z,1.97
2018-06-18T16:14:14.990Z,3.07
2018-06-18T16:16:45.393Z,2.47
2018-06-18T16:19:18.843Z,1.87
2018-06-18T16:21:51.018Z,2.20
2018-06-18T16:24:23.966Z,1.80
2018-06-18T16:26:54.349Z,1.73
2018-06-18T16:29:27.280Z,2.00
2018-06-18T16:31:57.661Z,1.90
2018-06-18T16:34:28.035Z,3.73
2018-06-18T16:36:58.435Z,1.73
2018-06-18T16:42:17.260Z,1.60
2018-06-18T16:44:47.626Z,1.50
2018-06-18T16:47:24.172Z,1.43
2018-06-18T16:49:55.331Z,1.87
2018-06-18T16:52:25.628Z,1.90
2018-06-18T16:54:56.799Z,2.40
2018-06-18T16:57:27.122Z,1.67
2018-06-18T16:59:57.501Z,2.50
2018-06-18T17:02:27.901Z,2.23
2018-06-18T17:05:04.417Z,3.13
2018-06-18T17:07:35.776Z,2.03
2018-06-18T17:10:06.927Z,1.77
2018-06-18T17:12:38.033Z,1.53
2018-06-18T17:15:08.436Z,1.70
2018-06-18T17:17:41.523Z,2.17
2018-06-18T17:20:19.063Z,1.60
2018-06-18T17:22:52.959Z,2.23
2018-06-18T17:25:26.178Z,5.40
2018-06-18T17:27:57.319Z,7.40
2018-06-18T17:30:28.463Z,3.53
2018-06-18T17:32:59.634Z,2.53
2018-06-18T17:35:30.026Z,1.73
2018-06-18T17:38:01.205Z,2.60
2018-06-18T17:40:31.579Z,3.67
2018-06-18T17:43:01.967Z,2.43
2018-06-18T17:45:34.398Z,3.00
2018-06-18T17:48:05.589Z,2.17
2018-06-18T17:50:36.687Z,2.10
2018-06-18T17:53:07.064Z,6.47
2018-06-18T17:55:40.319Z,7.37
2018-06-18T17:58:11.402Z,6.00
2018-06-18T18:01:00.131Z,4.87
2018-06-18T18:03:30.710Z,2.27
2018-06-18T18:06:01.144Z,2.30
2018-06-18T18:08:31.481Z,1.77
2018-06-18T18:11:04.473Z,1.60
2018-06-18T18:13:35.739Z,1.63
2018-06-18T18:16:08.542Z,1.83
2018-06-18T18:18:38.919Z,1.97
2018-06-18T18:21:09.298Z,1.70
2018-06-18T18:23:41.758Z,1.60
2018-06-18T18:26:14.708Z,1.70
2018-06-18T18:28:45.116Z,1.60
2018-06-18T18:31:15.489Z,2.30
2018-06-18T18:33:45.890Z,1.90
2018-06-18T18:36:37.667Z,2.30
2018-06-18T18:39:08.043Z,4.00
2018-06-18T18:41:38.424Z,1.70
2018-06-18T18:44:11.013Z,2.23
2018-06-18T18:46:41.424Z,1.60
2018-06-18T18:49:13.833Z,1.43
2018-06-18T18:51:44.230Z,2.47
2018-06-18T18:54:22.139Z,1.77
2018-06-18T18:57:03.778Z,3.43
2018-06-18T18:59:37.497Z,2.83
2018-06-18T19:02:07.872Z,1.80
2018-06-18T19:04:38.264Z,2.10
2018-06-18T19:07:08.652Z,1.87
2018-06-18T19:09:39.142Z,1.63
2018-06-18T19:12:09.472Z,2.13
2018-06-18T19:14:44.964Z,1.77
2018-06-18T19:17:16.331Z,1.90
2018-06-18T19:19:46.710Z,2.50
2018-06-18T19:22:17.080Z,3.50
2018-06-18T19:24:47.489Z,2.13
2018-06-18T19:27:18.629Z,2.00
2018-06-18T19:29:49.760Z,1.47
2018-06-18T19:32:20.149Z,1.73
2018-06-18T19:34:57.371Z,2.67
2018-06-18T19:37:27.887Z,4.03
2018-06-18T19:40:03.477Z,3.13
2018-06-18T19:42:34.649Z,2.13
2018-06-18T19:45:05.038Z,3.60
2018-06-18T19:47:35.412Z,3.80
2018-06-18T19:52:54.583Z,4.53
2018-06-18T19:55:24.980Z,3.07
2018-06-18T19:57:56.118Z,4.03
2018-06-18T20:00:26.491Z,4.77
2018-06-18T20:02:58.930Z,4.03
2018-06-18T20:05:30.069Z,3.13
2018-06-18T20:08:01.207Z,3.13
2018-06-18T20:10:32.369Z,4.10
2018-06-18T20:13:02.748Z,3.47
2018-06-18T20:15:33.065Z,3.17
2018-06-18T20:18:05.978Z,3.40
2018-06-18T20:20:36.349Z,4.40
2018-06-18T20:23:06.726Z,2.10
2018-06-18T20:25:37.182Z,2.40
2018-06-18T20:28:07.452Z,2.10
2018-06-18T20:31:00.038Z,2.70
2018-06-18T20:33:30.354Z,3.23
2018-06-18T20:36:00.666Z,2.13
2018-06-18T20:38:31.065Z,2.20
2018-06-18T20:41:02.148Z,4.23
2018-06-18T20:43:32.532Z,1.80
2018-06-18T20:46:02.939Z,1.37
2018-06-18T20:48:33.316Z,2.03
2018-06-18T20:51:03.706Z,1.63
2018-06-18T20:53:34.099Z,2.07
2018-06-18T20:56:05.244Z,1.90
2018-06-18T20:58:36.388Z,1.77
2018-06-18T21:01:06.806Z,4.87
2018-06-18T21:03:37.114Z,2.30
2018-06-18T21:06:08.161Z,2.07
2018-06-18T21:08:37.629Z,2.03
2018-06-18T21:11:14.658Z,1.90
2018-06-18T21:13:40.597Z,2.30
2018-06-18T21:16:11.767Z,1.57
2018-06-18T21:18:42.149Z,2.13
2018-06-18T21:21:12.469Z,1.80
2018-06-18T21:23:42.860Z,1.50
2018-06-18T21:26:19.381Z,1.40
2018-06-18T21:28:50.556Z,2.90
2018-06-18T21:31:20.942Z,2.13
2018-06-18T21:33:51.317Z,1.83
2018-06-18T21:36:21.722Z,1.80
2018-06-18T21:38:52.838Z,3.53
2018-06-18T21:41:23.219Z,2.73
2018-06-18T21:43:53.648Z,1.93
2018-06-18T21:46:25.041Z,1.80
2018-06-18T21:48:55.417Z,2.17
2018-06-18T21:51:25.823Z,1.57
2018-06-18T21:53:56.257Z,2.97
2018-06-18T21:56:27.260Z,2.17
2018-06-18T21:58:57.666Z,2.80
2018-06-18T22:01:28.049Z,2.33
2018-06-18T22:03:58.424Z,1.83
2018-06-18T22:06:28.826Z,2.37
2018-06-18T22:09:03.284Z,2.77
2018-06-18T22:11:33.671Z,1.80
2018-06-18T22:14:04.261Z,2.53
2018-06-18T22:16:36.423Z,1.97
2018-06-18T22:19:06.788Z,2.63
2018-06-18T22:21:37.372Z,1.73
2018-06-18T22:24:07.749Z,2.10
2018-06-18T22:26:38.131Z,2.00
2018-06-18T22:29:08.526Z,2.43
2018-06-18T22:31:40.944Z,2.57
2018-06-18T22:34:12.310Z,2.33
2018-06-18T22:36:42.678Z,2.27
2018-06-18T22:39:15.089Z,2.03
2018-06-18T22:41:45.462Z,3.50
2018-06-18T22:44:22.012Z,1.93
2018-06-18T22:46:52.384Z,2.47
2018-06-18T22:49:22.767Z,1.93
2018-06-18T22:51:53.167Z,2.63
2018-06-18T22:54:24.305Z,2.10
2018-06-18T22:56:55.451Z,1.50
2018-06-18T22:59:26.614Z,2.60
2018-06-18T23:01:57.712Z,2.57
2018-06-18T23:04:28.092Z,2.47
2018-06-18T23:06:58.489Z,2.70
2018-06-18T23:09:29.646Z,2.17
2018-06-18T23:12:00.770Z,2.03
2018-06-18T23:14:31.167Z,1.77
2018-06-18T23:17:02.574Z,1.70
2018-06-18T23:19:33.133Z,1.43
2018-06-18T23:22:05.582Z,2.77
2018-06-18T23:24:35.950Z,2.07
2018-06-18T23:27:06.333Z,2.23
2018-06-18T23:29:36.737Z,2.03
2018-06-18T23:32:07.114Z,3.23
2018-06-18T23:34:37.482Z,2.50
2018-06-18T23:37:07.885Z,4.80
2018-06-18T23:39:38.921Z,1.80
2018-06-18T23:42:09.306Z,2.10
2018-06-18T23:44:39.647Z,1.90
2018-06-18T23:47:10.030Z,2.30
2018-06-18T23:49:40.402Z,1.97
2018-06-18T23:52:10.775Z,2.50
2018-06-18T23:54:41.152Z,2.07
2018-06-18T23:57:11.471Z,2.57
2018-06-18T23:59:41.868Z,2.43
